Time;durP1;ratioP1;P1;durP2;ratioP2;P2;SDS_P1;SDS_P2;PMS_P1;PMS_P2;Temp;Humidity;BMP_temperature;BMP_pressure;BME280_temperature;BME280_humidity;BME280_pressure;Samples;Min_cycle;Max_cycle;Signal;HPM_P1;HPM_P2
2022/04/03 01:40:35;;;;;;;1.30;0.60;;;4.40;99.90;;;;;;6186016;23;20025;-93
2022/04/03 04:06:09;;;;;;;1.20;0.93;;;3.50;99.90;;;;;;6188189;23;20344;-91
2022/04/03 04:22:34;;;;;;;3.63;0.70;;;3.50;99.90;;;;;;6100250;23;20097;-91
2022/04/03 04:26:45;;;;;;;0.70;0.20;;;3.40;99.90;;;;;;6156935;23;20025;-91
2022/04/03 04:34:35;;;;;;;1.10;0.53;;;3.30;99.90;;;;;;6110705;23;20127;-91
2022/04/03 04:37:32;;;;;;;;;;;;;;;;;;;;;
2022/04/03 04:41:37;;;;;;;;;;;;;;;;;;;;;
2022/04/03 05:06:16;;;;;;;;;;;;;;;;;;;;;
2022/04/03 05:10:13;;;;;;;0.50;0.30;;;3.50;99.90;;;;;;5998111;23;20543;-91
2022/04/03 05:13:46;;;;;;;1.00;0.20;;;3.60;99.90;;;;;;5991347;23;20019;-92
2022/04/03 05:17:10;;;;;;;1.90;0.47;;;3.50;99.90;;;;;;5995128;23;20106;-91
2022/04/03 05:20:31;;;;;;;1.70;0.43;;;3.60;99.90;;;;;;6038341;23;20099;-90
2022/04/03 05:23:34;;;;;;;0.87;0.47;;;3.60;99.90;;;;;;5981065;23;20027;-91
2022/04/03 05:26:36;;;;;;;;;;;;;;;;;;;;;
2022/04/03 05:29:19;;;;;;;6.03;0.53;;;3.70;99.90;;;;;;6154809;23;20397;-91
2022/04/03 05:31:55;;;;;;;1.03;0.30;;;3.60;99.90;;;;;;6155891;23;20084;-90
2022/04/03 05:34:43;;;;;;;1.20;0.50;;;3.70;99.90;;;;;;6154847;23;20028;-90
2022/04/03 05:37:42;;;;;;;;;;;;;;;;;;;;;
2022/04/03 05:40:49;;;;;;;1.63;0.93;;;3.70;99.90;;;;;;6125946;23;20117;-90
2022/04/03 05:43:40;;;;;;;4.30;0.60;;;3.70;99.90;;;;;;6125263;23;20073;-90
2022/04/03 05:46:19;;;;;;;3.73;0.33;;;3.80;99.90;;;;;;6126608;23;20018;-90
2022/04/03 05:49:03;;;;;;;2.83;0.47;;;3.80;99.90;;;;;;6106119;23;20133;-90
2022/04/03 05:51:42;;;;;;;1.77;0.57;;;3.80;99.90;;;;;;6129180;23;20036;-92
2022/04/03 05:55:09;;;;;;;1.20;0.43;;;3.90;99.90;;;;;;6128933;23;20134;-89
2022/04/03 05:57:52;;;;;;;;;;;;;;;;;;;;;
2022/04/03 06:32:33;;;;;;;1.47;0.50;;;3.90;99.90;;;;;;6150345;23;21269;-92
2022/04/03 06:49:13;;;;;;;0.60;0.60;;;3.90;99.90;;;;;;6163694;23;20025;-96
2022/04/03 14:24:41;;;;;;;2.38;0.45;;;10.90;10.10;;;;;;6102959;23;20031;-94
2022/04/03 14:31:36;;;;;;;2.75;0.40;;;11.00;1.40;;;;;;6134243;23;20041;-92
2022/04/03 15:28:45;;;;;;;0.90;0.50;;;11.60;1.00;;;;;;6128666;23;20022;-89
2022/04/03 15:31:17;;;;;;;0.80;0.32;;;11.70;1.00;;;;;;6126428;23;20021;-89
2022/04/03 15:33:46;;;;;;;1.38;0.38;;;11.80;1.00;;;;;;6128076;23;20018;-88
2022/04/03 15:36:17;;;;;;;0.52;0.22;;;11.90;1.00;;;;;;6126523;23;20038;-90
2022/04/03 15:38:44;;;;;;;1.13;0.32;;;12.10;1.00;;;;;;6127744;23;20094;-88
2022/04/03 15:41:13;;;;;;;0.40;0.22;;;12.10;1.00;;;;;;6150772;23;20021;-88
2022/04/03 15:43:40;;;;;;;1.55;0.50;;;12.10;1.00;;;;;;6126590;23;20025;-88
2022/04/03 15:46:07;;;;;;;0.80;0.68;;;12.10;1.00;;;;;;6127751;23;20014;-88
2022/04/03 15:48:35;;;;;;;1.15;0.88;;;12.00;1.00;;;;;;6126040;23;20022;-88
2022/04/03 15:51:03;;;;;;;0.75;0.32;;;12.00;1.00;;;;;;6127755;23;20014;-88
2022/04/03 15:53:31;;;;;;;1.27;0.40;;;11.80;1.00;;;;;;6126214;23;20194;-88
2022/04/03 15:55:58;;;;;;;1.40;0.55;;;11.70;1.00;;;;;;6127973;23;20021;-87
2022/04/03 15:58:25;;;;;;;4.75;0.88;;;11.70;1.00;;;;;;6125757;23;20332;-88
2022/04/03 16:00:53;;;;;;;1.58;1.23;;;11.60;1.00;;;;;;6127636;23;20014;-88
2022/04/03 16:03:21;;;;;;;1.67;0.45;;;11.60;1.00;;;;;;6127711;23;20073;-88
2022/04/03 16:05:53;;;;;;;3.67;0.90;;;11.60;1.00;;;;;;6126642;23;20032;-88
2022/04/03 16:08:20;;;;;;;1.63;0.50;;;11.50;1.00;;;;;;6127629;23;20029;-88
2022/04/03 16:10:47;;;;;;;2.85;0.47;;;11.30;1.00;;;;;;6125400;23;20077;-88
2022/04/03 16:13:16;;;;;;;2.17;0.57;;;11.10;1.00;;;;;;6126056;23;20021;-89
2022/04/03 16:15:45;;;;;;;1.52;0.32;;;11.10;1.00;;;;;;6125793;23;20040;-87
2022/04/03 16:18:13;;;;;;;0.80;0.40;;;11.00;1.00;;;;;;6125878;23;20022;-89
2022/04/03 16:20:40;;;;;;;1.40;0.63;;;10.90;1.00;;;;;;6150792;23;20039;-88
2022/04/03 16:23:07;;;;;;;0.93;0.50;;;10.90;1.00;;;;;;6127835;23;20017;-88
2022/04/03 16:25:37;;;;;;;0.57;0.52;;;10.80;1.00;;;;;;6127526;23;20472;-89
2022/04/03 16:28:10;;;;;;;0.60;0.38;;;10.90;1.00;;;;;;6127278;23;20018;-88
2022/04/03 16:30:37;;;;;;;0.88;0.38;;;10.80;1.00;;;;;;6126123;23;20159;-89
2022/04/03 16:33:07;;;;;;;2.25;0.40;;;10.60;1.00;;;;;;6125799;23;20010;-88
2022/04/03 16:35:37;;;;;;;1.40;0.60;;;10.60;1.00;;;;;;6127931;23;20018;-88
2022/04/03 16:38:05;;;;;;;2.47;0.57;;;10.60;1.00;;;;;;6150741;23;20069;-87
2022/04/03 16:40:43;;;;;;;4.70;0.55;;;10.50;1.00;;;;;;6127379;23;20093;-88
2022/04/03 16:43:13;;;;;;;0.93;0.40;;;10.50;1.00;;;;;;6151444;23;20358;-89
2022/04/03 16:45:42;;;;;;;1.65;0.57;;;10.40;1.00;;;;;;6126731;23;20022;-89
2022/04/03 16:48:12;;;;;;;0.60;0.32;;;10.40;1.00;;;;;;6151466;23;20027;-89
2022/04/03 16:50:39;;;;;;;0.88;0.30;;;10.30;1.00;;;;;;6125376;23;20439;-89
2022/04/03 16:53:09;;;;;;;1.65;0.70;;;10.30;1.00;;;;;;6150071;23;20022;-88
2022/04/03 16:55:36;;;;;;;1.85;0.38;;;10.30;1.00;;;;;;6127134;23;20084;-89
2022/04/03 16:58:04;;;;;;;2.83;0.43;;;10.40;1.00;;;;;;6101460;23;20022;-88
2022/04/03 17:00:31;;;;;;;1.70;0.45;;;10.40;1.00;;;;;;6127308;23;20033;-89
2022/04/03 17:07:00;;;;;;;1.58;0.60;;;10.30;1.00;;;;;;6104924;23;20025;-89
2022/04/03 17:09:35;;;;;;;3.45;0.43;;;10.20;1.00;;;;;;6124315;23;20040;-88
2022/04/03 17:12:09;;;;;;;1.05;0.40;;;10.10;1.00;;;;;;6102077;23;20353;-90
2022/04/03 17:14:46;;;;;;;1.90;0.70;;;10.10;1.00;;;;;;6126237;23;20022;-89
2022/04/03 17:17:24;;;;;;;0.68;0.47;;;10.00;1.00;;;;;;6127072;23;20024;-89
2022/04/03 17:20:00;;;;;;;2.92;0.60;;;10.00;1.00;;;;;;6127384;23;20014;-90
2022/04/03 17:22:43;;;;;;;0.60;0.47;;;10.00;1.00;;;;;;6125658;23;20022;-90
2022/04/03 17:25:19;;;;;;;3.75;0.63;;;9.80;1.00;;;;;;6127298;23;20069;-89
2022/04/03 17:28:03;;;;;;;1.38;0.60;;;9.80;1.00;;;;;;6125666;23;20112;-90
2022/04/03 17:30:35;;;;;;;1.30;0.38;;;9.80;1.00;;;;;;6124635;23;20450;-88
2022/04/03 17:33:02;;;;;;;3.50;0.60;;;9.80;1.00;;;;;;6125470;23;20018;-89
2022/04/03 17:35:50;;;;;;;1.23;0.43;;;9.70;1.00;;;;;;6126357;23;20073;-89
2022/04/03 17:38:24;;;;;;;5.32;0.52;;;9.70;1.00;;;;;;6126993;23;20011;-88
2022/04/03 17:41:04;;;;;;;1.08;0.60;;;9.70;1.00;;;;;;6125216;23;20021;-90
2022/04/03 17:43:46;;;;;;;0.98;0.80;;;9.60;1.00;;;;;;6125847;23;20077;-89
2022/04/03 17:46:20;;;;;;;2.00;0.77;;;9.50;1.00;;;;;;6123096;23;20096;-90
2022/04/03 17:49:14;;;;;;;1.83;0.70;;;9.50;1.00;;;;;;6126587;23;20036;-89
2022/04/03 17:51:48;;;;;;;1.92;0.45;;;9.40;1.00;;;;;;6149179;23;20506;-90
2022/04/03 17:54:19;;;;;;;1.92;0.90;;;9.50;1.00;;;;;;6127029;23;20018;-89
2022/04/03 17:56:50;;;;;;;4.28;0.75;;;9.40;1.00;;;;;;6149380;23;20014;-89
2022/04/03 17:59:23;;;;;;;1.05;0.40;;;9.40;1.00;;;;;;6125561;23;20049;-89
2022/04/03 18:02:01;;;;;;;1.48;1.02;;;9.40;1.00;;;;;;6127000;23;20442;-89
2022/04/03 18:04:31;;;;;;;2.30;0.63;;;9.30;1.00;;;;;;6125632;23;20173;-89
2022/04/03 18:07:07;;;;;;;1.25;0.52;;;9.20;1.00;;;;;;6121465;23;20018;-89
2022/04/03 18:09:38;;;;;;;3.28;0.65;;;9.20;1.00;;;;;;6101701;23;20025;-89
2022/04/03 18:12:13;;;;;;;2.30;0.47;;;9.20;1.00;;;;;;6149149;23;20413;-90
2022/04/03 18:15:30;;;;;;;2.17;0.65;;;9.10;1.00;;;;;;6125640;23;20472;-89
2022/04/03 18:25:41;;;;;;;2.05;0.63;;;8.90;1.00;;;;;;6126558;23;20021;-89
2022/04/03 18:29:00;;;;;;;3.70;0.65;;;8.90;1.00;;;;;;6126927;23;20073;-89
2022/04/03 18:32:11;;;;;;;1.70;0.82;;;8.80;1.00;;;;;;6088257;23;20343;-88
2022/04/03 18:35:04;;;;;;;2.30;0.65;;;8.70;2.80;;;;;;6149231;23;20018;-90
2022/04/03 18:38:13;;;;;;;3.33;0.60;;;8.70;3.80;;;;;;6125266;23;20438;-89
2022/04/03 18:41:16;;;;;;;1.98;0.60;;;8.60;3.80;;;;;;6123907;23;20085;-89
2022/04/03 18:43:49;;;;;;;2.40;0.88;;;8.60;6.50;;;;;;6148563;23;20442;-88
2022/04/03 18:46:18;;;;;;;1.60;0.50;;;8.50;7.00;;;;;;6130932;23;20045;-89
2022/04/03 18:48:49;;;;;;;2.83;0.60;;;8.50;7.30;;;;;;6126674;23;20021;-89
2022/04/03 18:51:19;;;;;;;1.77;0.75;;;8.50;8.40;;;;;;6128967;23;20028;-89
2022/04/03 18:53:46;;;;;;;1.25;0.70;;;8.40;9.10;;;;;;6128198;23;20014;-88
2022/04/03 18:56:14;;;;;;;1.67;0.60;;;8.40;10.10;;;;;;6126569;23;20021;-89
2022/04/03 18:58:45;;;;;;;4.78;1.15;;;8.30;9.40;;;;;;6126985;23;20025;-89
2022/04/03 19:01:24;;;;;;;3.70;0.68;;;8.30;11.50;;;;;;6128442;23;20014;-89
2022/04/03 19:04:47;;;;;;;1.92;0.82;;;8.30;13.50;;;;;;6010938;23;20091;-89
2022/04/03 19:07:27;;;;;;;1.80;0.75;;;8.20;10.70;;;;;;5964735;23;20083;-89
2022/04/03 19:16:47;;;;;;;3.03;1.00;;;8.00;17.30;;;;;;6167724;23;20025;-89
2022/04/03 19:20:12;;;;;;;2.35;0.60;;;8.10;18.80;;;;;;6187955;23;20034;-89
2022/04/03 19:23:26;;;;;;;2.20;0.98;;;8.10;18.60;;;;;;6095469;23;20018;-89
2022/04/03 19:27:10;;;;;;;2.15;0.63;;;8.00;18.60;;;;;;6126169;23;20029;-90
2022/04/03 19:30:43;;;;;;;;;;;8.00;20.70;;;;;;6072298;23;20450;-90
2022/04/03 19:33:38;;;;;;;2.22;0.50;;;8.00;16.10;;;;;;6096711;23;19940;-90
2022/04/03 19:37:40;;;;;;;1.05;0.50;;;7.90;20.70;;;;;;6077522;23;20101;-90
2022/04/03 21:18:52;;;;;;;1.58;0.60;;;6.90;33.40;;;;;;5897720;24;20052;-90
2022/04/03 21:21:57;;;;;;;3.50;0.57;;;6.90;29.00;;;;;;6048388;23;20025;-90
2022/04/03 21:24:37;;;;;;;3.15;0.98;;;6.80;29.70;;;;;;6129742;23;20100;-91
2022/04/03 22:16:16;;;;;;;3.83;1.10;;;6.60;46.30;;;;;;5889715;24;20462;-92
2022/04/03 22:28:18;;;;;;;2.92;1.05;;;6.60;63.30;;;;;;5925537;24;20048;-93
